sensor_id;sensor_type;location;lat;lon;timestamp;P1;durP1;ratioP1;P2;durP2;ratioP2
11398;SDS011;5755;48.116;11.608;2023-01-23T00:01:56;28.03;;;16.33;;
11398;SDS011;5755;48.116;11.608;2023-01-23T00:04:23;28.50;;;16.63;;
11398;SDS011;5755;48.116;11.608;2023-01-23T00:06:50;28.97;;;16.40;;
11398;SDS011;5755;48.116;11.608;2023-01-23T00:09:18;27.07;;;16.00;;
11398;SDS011;5755;48.116;11.608;2023-01-23T00:11:45;27.90;;;15.93;;
11398;SDS011;5755;48.116;11.608;2023-01-23T00:14:11;24.70;;;14.83;;
11398;SDS011;5755;48.116;11.608;2023-01-23T00:16:38;29.67;;;16.23;;
11398;SDS011;5755;48.116;11.608;2023-01-23T00:19:05;28.53;;;15.10;;
11398;SDS011;5755;48.116;11.608;2023-01-23T00:21:32;24.63;;;15.20;;
11398;SDS011;5755;48.116;11.608;2023-01-23T00:23:59;25.13;;;14.97;;
11398;SDS011;5755;48.116;11.608;2023-01-23T00:26:28;24.63;;;14.03;;
11398;SDS011;5755;48.116;11.608;2023-01-23T00:28:57;22.37;;;13.57;;
11398;SDS011;5755;48.116;11.608;2023-01-23T00:31:25;23.03;;;14.33;;
11398;SDS011;5755;48.116;11.608;2023-01-23T00:33:54;26.17;;;14.87;;
11398;SDS011;5755;48.116;11.608;2023-01-23T00:36:23;26.50;;;14.87;;
11398;SDS011;5755;48.116;11.608;2023-01-23T00:38:53;23.70;;;14.73;;
11398;SDS011;5755;48.116;11.608;2023-01-23T00:41:20;29.03;;;15.27;;
11398;SDS011;5755;48.116;11.608;2023-01-23T00:43:48;23.77;;;14.53;;
11398;SDS011;5755;48.116;11.608;2023-01-23T00:46:16;24.90;;;15.30;;
11398;SDS011;5755;48.116;11.608;2023-01-23T00:48:43;27.87;;;15.93;;
11398;SDS011;5755;48.116;11.608;2023-01-23T00:51:09;27.30;;;15.23;;
11398;SDS011;5755;48.116;11.608;2023-01-23T00:53:36;25.77;;;14.50;;
11398;SDS011;5755;48.116;11.608;2023-01-23T00:56:04;25.17;;;14.80;;
11398;SDS011;5755;48.116;11.608;2023-01-23T00:58:32;24.43;;;14.20;;
11398;SDS011;5755;48.116;11.608;2023-01-23T01:01:00;23.77;;;15.07;;
11398;SDS011;5755;48.116;11.608;2023-01-23T01:03:27;25.90;;;14.80;;
11398;SDS011;5755;48.116;11.608;2023-01-23T01:05:53;25.60;;;15.63;;
11398;SDS011;5755;48.116;11.608;2023-01-23T01:08:20;26.40;;;15.30;;
11398;SDS011;5755;48.116;11.608;2023-01-23T01:10:47;24.23;;;14.50;;
11398;SDS011;5755;48.116;11.608;2023-01-23T01:13:14;23.47;;;14.50;;
11398;SDS011;5755;48.116;11.608;2023-01-23T01:15:43;26.13;;;15.53;;
11398;SDS011;5755;48.116;11.608;2023-01-23T01:18:11;24.03;;;14.63;;
11398;SDS011;5755;48.116;11.608;2023-01-23T01:20:39;27.03;;;15.57;;
11398;SDS011;5755;48.116;11.608;2023-01-23T01:23:06;26.60;;;15.23;;
11398;SDS011;5755;48.116;11.608;2023-01-23T01:25:34;24.97;;;15.13;;
11398;SDS011;5755;48.116;11.608;2023-01-23T01:28:01;22.00;;;13.53;;
11398;SDS011;5755;48.116;11.608;2023-01-23T01:30:29;23.17;;;14.40;;
11398;SDS011;5755;48.116;11.608;2023-01-23T01:32:55;23.13;;;14.50;;
11398;SDS011;5755;48.116;11.608;2023-01-23T01:35:24;27.33;;;16.10;;
11398;SDS011;5755;48.116;11.608;2023-01-23T01:37:51;23.07;;;14.27;;
11398;SDS011;5755;48.116;11.608;2023-01-23T01:40:18;24.57;;;15.70;;
11398;SDS011;5755;48.116;11.608;2023-01-23T01:42:49;25.27;;;15.13;;
11398;SDS011;5755;48.116;11.608;2023-01-23T01:48:23;27.77;;;15.50;;
11398;SDS011;5755;48.116;11.608;2023-01-23T01:50:53;32.27;;;17.73;;
11398;SDS011;5755;48.116;11.608;2023-01-23T01:53:20;27.40;;;16.80;;
11398;SDS011;5755;48.116;11.608;2023-01-23T01:55:51;30.70;;;17.80;;
11398;SDS011;5755;48.116;11.608;2023-01-23T01:58:18;28.47;;;17.17;;
11398;SDS011;5755;48.116;11.608;2023-01-23T02:00:45;27.87;;;16.77;;
11398;SDS011;5755;48.116;11.608;2023-01-23T02:03:12;29.87;;;18.33;;
11398;SDS011;5755;48.116;11.608;2023-01-23T02:05:42;26.87;;;16.97;;
11398;SDS011;5755;48.116;11.608;2023-01-23T02:08:14;29.87;;;17.70;;
11398;SDS011;5755;48.116;11.608;2023-01-23T02:10:45;30.93;;;17.87;;
11398;SDS011;5755;48.116;11.608;2023-01-23T02:13:20;30.63;;;18.40;;
11398;SDS011;5755;48.116;11.608;2023-01-23T02:15:48;25.00;;;16.40;;
11398;SDS011;5755;48.116;11.608;2023-01-23T02:18:16;31.83;;;18.10;;
11398;SDS011;5755;48.116;11.608;2023-01-23T02:20:43;29.53;;;17.53;;
11398;SDS011;5755;48.116;11.608;2023-01-23T02:23:14;28.17;;;16.97;;
11398;SDS011;5755;48.116;11.608;2023-01-23T02:25:53;30.67;;;17.47;;
11398;SDS011;5755;48.116;11.608;2023-01-23T02:28:22;30.17;;;16.73;;
11398;SDS011;5755;48.116;11.608;2023-01-23T02:31:02;29.17;;;16.93;;
11398;SDS011;5755;48.116;11.608;2023-01-23T02:33:43;28.20;;;17.07;;
11398;SDS011;5755;48.116;11.608;2023-01-23T02:36:16;31.60;;;18.90;;
11398;SDS011;5755;48.116;11.608;2023-01-23T02:38:47;30.50;;;18.33;;
11398;SDS011;5755;48.116;11.608;2023-01-23T02:41:22;32.80;;;18.63;;
11398;SDS011;5755;48.116;11.608;2023-01-23T02:43:53;30.83;;;18.77;;
11398;SDS011;5755;48.116;11.608;2023-01-23T02:46:22;31.10;;;17.67;;
11398;SDS011;5755;48.116;11.608;2023-01-23T02:48:50;30.27;;;17.90;;
11398;SDS011;5755;48.116;11.608;2023-01-23T02:51:16;30.83;;;17.93;;
11398;SDS011;5755;48.116;11.608;2023-01-23T02:53:45;27.87;;;17.20;;
11398;SDS011;5755;48.116;11.608;2023-01-23T02:56:12;29.77;;;17.47;;
11398;SDS011;5755;48.116;11.608;2023-01-23T02:58:40;27.87;;;16.57;;
11398;SDS011;5755;48.116;11.608;2023-01-23T03:01:25;31.60;;;18.33;;
11398;SDS011;5755;48.116;11.608;2023-01-23T03:03:52;27.73;;;17.40;;
11398;SDS011;5755;48.116;11.608;2023-01-23T03:06:21;27.00;;;17.13;;
11398;SDS011;5755;48.116;11.608;2023-01-23T03:08:48;29.40;;;18.13;;
11398;SDS011;5755;48.116;11.608;2023-01-23T03:11:16;30.07;;;17.63;;
11398;SDS011;5755;48.116;11.608;2023-01-23T03:13:45;29.47;;;18.00;;
11398;SDS011;5755;48.116;11.608;2023-01-23T03:16:13;28.87;;;17.57;;
11398;SDS011;5755;48.116;11.608;2023-01-23T03:18:40;30.77;;;18.43;;
11398;SDS011;5755;48.116;11.608;2023-01-23T03:21:07;30.53;;;17.27;;
11398;SDS011;5755;48.116;11.608;2023-01-23T03:23:36;30.30;;;17.40;;
11398;SDS011;5755;48.116;11.608;2023-01-23T03:26:05;28.90;;;17.23;;
11398;SDS011;5755;48.116;11.608;2023-01-23T03:28:32;28.80;;;18.03;;
11398;SDS011;5755;48.116;11.608;2023-01-23T03:31:18;29.93;;;17.90;;
11398;SDS011;5755;48.116;11.608;2023-01-23T03:33:45;28.50;;;17.50;;
11398;SDS011;5755;48.116;11.608;2023-01-23T03:36:12;30.17;;;18.23;;
11398;SDS011;5755;48.116;11.608;2023-01-23T03:38:40;27.20;;;16.27;;
11398;SDS011;5755;48.116;11.608;2023-01-23T03:41:27;27.60;;;16.93;;
11398;SDS011;5755;48.116;11.608;2023-01-23T03:43:54;27.67;;;17.13;;
11398;SDS011;5755;48.116;11.608;2023-01-23T03:46:22;27.53;;;16.30;;
11398;SDS011;5755;48.116;11.608;2023-01-23T03:48:49;26.80;;;16.93;;
11398;SDS011;5755;48.116;11.608;2023-01-23T03:51:16;28.07;;;17.27;;
11398;SDS011;5755;48.116;11.608;2023-01-23T03:53:43;28.33;;;17.53;;
11398;SDS011;5755;48.116;11.608;2023-01-23T03:56:10;26.43;;;16.50;;
11398;SDS011;5755;48.116;11.608;2023-01-23T03:58:37;27.83;;;16.70;;
11398;SDS011;5755;48.116;11.608;2023-01-23T04:01:04;28.63;;;16.83;;
11398;SDS011;5755;48.116;11.608;2023-01-23T04:03:33;26.93;;;16.77;;
11398;SDS011;5755;48.116;11.608;2023-01-23T04:06:00;27.87;;;16.60;;
11398;SDS011;5755;48.116;11.608;2023-01-23T04:08:27;27.33;;;17.03;;
11398;SDS011;5755;48.116;11.608;2023-01-23T04:11:01;28.87;;;16.50;;
11398;SDS011;5755;48.116;11.608;2023-01-23T04:13:29;28.30;;;16.80;;
11398;SDS011;5755;48.116;11.608;2023-01-23T04:15:56;30.50;;;17.93;;
11398;SDS011;5755;48.116;11.608;2023-01-23T04:18:23;27.00;;;15.90;;
11398;SDS011;5755;48.116;11.608;2023-01-23T04:20:52;28.07;;;17.60;;
11398;SDS011;5755;48.116;11.608;2023-01-23T04:23:19;26.17;;;16.40;;
11398;SDS011;5755;48.116;11.608;2023-01-23T04:25:46;26.03;;;16.47;;
11398;SDS011;5755;48.116;11.608;2023-01-23T04:28:13;25.80;;;15.67;;
11398;SDS011;5755;48.116;11.608;2023-01-23T04:30:40;26.60;;;15.77;;
11398;SDS011;5755;48.116;11.608;2023-01-23T04:33:07;27.87;;;16.47;;
11398;SDS011;5755;48.116;11.608;2023-01-23T04:35:34;25.70;;;16.03;;
11398;SDS011;5755;48.116;11.608;2023-01-23T04:38:02;24.50;;;16.07;;
11398;SDS011;5755;48.116;11.608;2023-01-23T04:40:29;26.53;;;16.83;;
11398;SDS011;5755;48.116;11.608;2023-01-23T04:42:56;29.07;;;17.20;;
11398;SDS011;5755;48.116;11.608;2023-01-23T04:45:23;27.83;;;16.67;;
11398;SDS011;5755;48.116;11.608;2023-01-23T04:47:50;27.37;;;16.83;;
11398;SDS011;5755;48.116;11.608;2023-01-23T04:50:17;27.33;;;16.50;;
11398;SDS011;5755;48.116;11.608;2023-01-23T04:52:44;25.13;;;16.23;;
11398;SDS011;5755;48.116;11.608;2023-01-23T04:55:12;24.47;;;16.13;;
11398;SDS011;5755;48.116;11.608;2023-01-23T04:57:39;24.23;;;15.73;;
11398;SDS011;5755;48.116;11.608;2023-01-23T05:00:06;27.73;;;16.80;;
11398;SDS011;5755;48.116;11.608;2023-01-23T05:02:34;28.10;;;16.37;;
11398;SDS011;5755;48.116;11.608;2023-01-23T05:05:01;24.13;;;16.10;;
11398;SDS011;5755;48.116;11.608;2023-01-23T05:07:28;23.77;;;15.83;;
11398;SDS011;5755;48.116;11.608;2023-01-23T05:09:55;24.57;;;15.60;;
11398;SDS011;5755;48.116;11.608;2023-01-23T05:12:23;25.80;;;16.17;;
11398;SDS011;5755;48.116;11.608;2023-01-23T05:14:50;25.47;;;16.27;;
11398;SDS011;5755;48.116;11.608;2023-01-23T05:17:16;24.40;;;16.13;;
11398;SDS011;5755;48.116;11.608;2023-01-23T05:19:43;25.70;;;16.63;;
11398;SDS011;5755;48.116;11.608;2023-01-23T05:22:10;24.87;;;15.67;;
11398;SDS011;5755;48.116;11.608;2023-01-23T05:24:38;27.47;;;16.50;;
11398;SDS011;5755;48.116;11.608;2023-01-23T05:27:05;23.80;;;15.40;;
11398;SDS011;5755;48.116;11.608;2023-01-23T05:29:34;26.83;;;16.30;;
11398;SDS011;5755;48.116;11.608;2023-01-23T05:32:00;24.60;;;15.37;;
11398;SDS011;5755;48.116;11.608;2023-01-23T05:34:27;24.00;;;15.10;;
11398;SDS011;5755;48.116;11.608;2023-01-23T05:36:54;24.47;;;15.17;;
11398;SDS011;5755;48.116;11.608;2023-01-23T05:39:21;26.07;;;16.93;;
11398;SDS011;5755;48.116;11.608;2023-01-23T05:41:48;25.27;;;15.53;;
11398;SDS011;5755;48.116;11.608;2023-01-23T05:44:15;26.20;;;16.13;;
11398;SDS011;5755;48.116;11.608;2023-01-23T05:46:43;25.33;;;16.47;;
11398;SDS011;5755;48.116;11.608;2023-01-23T05:49:10;26.00;;;15.63;;
11398;SDS011;5755;48.116;11.608;2023-01-23T05:51:37;25.33;;;15.80;;
11398;SDS011;5755;48.116;11.608;2023-01-23T05:54:04;27.00;;;15.90;;
11398;SDS011;5755;48.116;11.608;2023-01-23T05:56:31;23.83;;;15.00;;
11398;SDS011;5755;48.116;11.608;2023-01-23T05:58:57;25.47;;;16.07;;
11398;SDS011;5755;48.116;11.608;2023-01-23T06:01:24;24.07;;;15.50;;
11398;SDS011;5755;48.116;11.608;2023-01-23T06:03:52;25.83;;;16.00;;
11398;SDS011;5755;48.116;11.608;2023-01-23T06:06:19;32.70;;;16.47;;
11398;SDS011;5755;48.116;11.608;2023-01-23T06:08:46;28.47;;;16.03;;
11398;SDS011;5755;48.116;11.608;2023-01-23T06:11:13;24.77;;;15.37;;
11398;SDS011;5755;48.116;11.608;2023-01-23T06:13:39;23.80;;;15.23;;
11398;SDS011;5755;48.116;11.608;2023-01-23T06:16:06;22.57;;;15.37;;
11398;SDS011;5755;48.116;11.608;2023-01-23T06:18:33;24.73;;;15.73;;
11398;SDS011;5755;48.116;11.608;2023-01-23T06:21:02;25.90;;;16.60;;
11398;SDS011;5755;48.116;11.608;2023-01-23T06:23:29;26.60;;;16.73;;
11398;SDS011;5755;48.116;11.608;2023-01-23T06:25:59;24.10;;;15.90;;
11398;SDS011;5755;48.116;11.608;2023-01-23T06:28:27;23.57;;;15.63;;
11398;SDS011;5755;48.116;11.608;2023-01-23T06:30:54;25.37;;;16.77;;
11398;SDS011;5755;48.116;11.608;2023-01-23T06:33:25;25.90;;;15.83;;
11398;SDS011;5755;48.116;11.608;2023-01-23T06:35:55;26.57;;;17.50;;
11398;SDS011;5755;48.116;11.608;2023-01-23T06:38:24;30.53;;;17.00;;
11398;SDS011;5755;48.116;11.608;2023-01-23T06:40:51;29.90;;;17.73;;
11398;SDS011;5755;48.116;11.608;2023-01-23T06:43:18;29.77;;;17.83;;
11398;SDS011;5755;48.116;11.608;2023-01-23T06:45:46;29.13;;;18.40;;
11398;SDS011;5755;48.116;11.608;2023-01-23T06:48:13;29.93;;;18.83;;
11398;SDS011;5755;48.116;11.608;2023-01-23T06:50:40;32.37;;;19.87;;
11398;SDS011;5755;48.116;11.608;2023-01-23T06:53:08;33.10;;;20.13;;
11398;SDS011;5755;48.116;11.608;2023-01-23T06:55:40;39.70;;;21.57;;
11398;SDS011;5755;48.116;11.608;2023-01-23T06:58:06;44.80;;;22.97;;
11398;SDS011;5755;48.116;11.608;2023-01-23T07:00:33;41.83;;;22.77;;
11398;SDS011;5755;48.116;11.608;2023-01-23T07:03:00;44.07;;;23.00;;
11398;SDS011;5755;48.116;11.608;2023-01-23T07:05:28;48.57;;;23.87;;
11398;SDS011;5755;48.116;11.608;2023-01-23T07:07:55;51.33;;;24.37;;
11398;SDS011;5755;48.116;11.608;2023-01-23T07:10:22;51.00;;;24.30;;
11398;SDS011;5755;48.116;11.608;2023-01-23T07:12:51;46.43;;;23.77;;
11398;SDS011;5755;48.116;11.608;2023-01-23T07:15:18;56.13;;;24.80;;
11398;SDS011;5755;48.116;11.608;2023-01-23T07:17:45;56.37;;;25.73;;
11398;SDS011;5755;48.116;11.608;2023-01-23T07:20:12;55.77;;;24.50;;
11398;SDS011;5755;48.116;11.608;2023-01-23T07:22:39;67.13;;;26.47;;
11398;SDS011;5755;48.116;11.608;2023-01-23T07:25:07;53.70;;;24.83;;
11398;SDS011;5755;48.116;11.608;2023-01-23T07:27:34;57.17;;;26.53;;
11398;SDS011;5755;48.116;11.608;2023-01-23T07:30:02;55.93;;;25.53;;
11398;SDS011;5755;48.116;11.608;2023-01-23T07:32:30;54.63;;;24.17;;
11398;SDS011;5755;48.116;11.608;2023-01-23T07:34:57;50.60;;;23.70;;
11398;SDS011;5755;48.116;11.608;2023-01-23T07:37:24;53.03;;;25.00;;
11398;SDS011;5755;48.116;11.608;2023-01-23T07:39:51;56.47;;;24.23;;
11398;SDS011;5755;48.116;11.608;2023-01-23T07:42:18;49.03;;;23.80;;
11398;SDS011;5755;48.116;11.608;2023-01-23T07:44:45;52.60;;;23.53;;
11398;SDS011;5755;48.116;11.608;2023-01-23T07:47:13;58.77;;;24.33;;
11398;SDS011;5755;48.116;11.608;2023-01-23T07:49:40;92.67;;;24.70;;
11398;SDS011;5755;48.116;11.608;2023-01-23T07:52:07;74.30;;;24.83;;
11398;SDS011;5755;48.116;11.608;2023-01-23T07:54:33;57.63;;;24.57;;
11398;SDS011;5755;48.116;11.608;2023-01-23T07:57:00;60.57;;;24.07;;
11398;SDS011;5755;48.116;11.608;2023-01-23T07:59:27;81.50;;;25.47;;
11398;SDS011;5755;48.116;11.608;2023-01-23T08:01:54;84.20;;;25.40;;
11398;SDS011;5755;48.116;11.608;2023-01-23T08:04:22;47.37;;;23.37;;
11398;SDS011;5755;48.116;11.608;2023-01-23T08:06:49;55.80;;;24.50;;
11398;SDS011;5755;48.116;11.608;2023-01-23T08:09:16;48.97;;;23.03;;
11398;SDS011;5755;48.116;11.608;2023-01-23T08:11:43;47.23;;;23.17;;
11398;SDS011;5755;48.116;11.608;2023-01-23T08:14:10;47.17;;;22.67;;
11398;SDS011;5755;48.116;11.608;2023-01-23T08:16:37;50.77;;;23.27;;
11398;SDS011;5755;48.116;11.608;2023-01-23T08:19:05;41.47;;;20.73;;
11398;SDS011;5755;48.116;11.608;2023-01-23T08:21:34;46.97;;;22.77;;
11398;SDS011;5755;48.116;11.608;2023-01-23T08:24:01;43.73;;;22.40;;
11398;SDS011;5755;48.116;11.608;2023-01-23T08:26:28;41.20;;;22.00;;
11398;SDS011;5755;48.116;11.608;2023-01-23T08:28:55;42.00;;;20.73;;
11398;SDS011;5755;48.116;11.608;2023-01-23T08:31:22;43.77;;;21.70;;
11398;SDS011;5755;48.116;11.608;2023-01-23T08:33:49;42.13;;;20.93;;
11398;SDS011;5755;48.116;11.608;2023-01-23T08:36:16;47.50;;;20.97;;
11398;SDS011;5755;48.116;11.608;2023-01-23T08:38:44;37.63;;;19.57;;
11398;SDS011;5755;48.116;11.608;2023-01-23T08:41:11;35.87;;;19.03;;
11398;SDS011;5755;48.116;11.608;2023-01-23T08:43:38;32.70;;;17.97;;
11398;SDS011;5755;48.116;11.608;2023-01-23T08:46:05;33.57;;;18.27;;
11398;SDS011;5755;48.116;11.608;2023-01-23T08:48:33;33.93;;;17.37;;
11398;SDS011;5755;48.116;11.608;2023-01-23T08:51:01;33.00;;;18.23;;
11398;SDS011;5755;48.116;11.608;2023-01-23T08:53:30;38.10;;;17.43;;
11398;SDS011;5755;48.116;11.608;2023-01-23T08:55:59;29.27;;;17.30;;
11398;SDS011;5755;48.116;11.608;2023-01-23T08:58:27;28.37;;;16.57;;
11398;SDS011;5755;48.116;11.608;2023-01-23T09:00:54;29.37;;;16.53;;
11398;SDS011;5755;48.116;11.608;2023-01-23T09:03:21;29.33;;;17.10;;
11398;SDS011;5755;48.116;11.608;2023-01-23T09:05:48;30.13;;;17.27;;
11398;SDS011;5755;48.116;11.608;2023-01-23T09:08:15;33.43;;;17.10;;
11398;SDS011;5755;48.116;11.608;2023-01-23T09:10:42;31.33;;;18.33;;
11398;SDS011;5755;48.116;11.608;2023-01-23T09:13:10;30.87;;;17.77;;
11398;SDS011;5755;48.116;11.608;2023-01-23T09:15:37;26.40;;;16.43;;
11398;SDS011;5755;48.116;11.608;2023-01-23T09:18:04;28.67;;;17.50;;
11398;SDS011;5755;48.116;11.608;2023-01-23T09:20:32;30.40;;;17.17;;
11398;SDS011;5755;48.116;11.608;2023-01-23T09:22:58;29.90;;;17.50;;
11398;SDS011;5755;48.116;11.608;2023-01-23T09:25:25;29.37;;;16.60;;
11398;SDS011;5755;48.116;11.608;2023-01-23T09:27:55;28.70;;;17.10;;
11398;SDS011;5755;48.116;11.608;2023-01-23T09:30:23;27.23;;;16.97;;
11398;SDS011;5755;48.116;11.608;2023-01-23T09:32:50;29.00;;;17.00;;
11398;SDS011;5755;48.116;11.608;2023-01-23T09:35:18;29.33;;;17.87;;
11398;SDS011;5755;48.116;11.608;2023-01-23T09:37:47;29.17;;;16.90;;
11398;SDS011;5755;48.116;11.608;2023-01-23T09:40:26;26.07;;;16.10;;
11398;SDS011;5755;48.116;11.608;2023-01-23T09:46:21;29.67;;;17.27;;
11398;SDS011;5755;48.116;11.608;2023-01-23T09:48:52;27.87;;;16.80;;
11398;SDS011;5755;48.116;11.608;2023-01-23T09:51:27;25.80;;;16.23;;
11398;SDS011;5755;48.116;11.608;2023-01-23T09:54:00;29.23;;;17.33;;
11398;SDS011;5755;48.116;11.608;2023-01-23T09:56:37;27.23;;;17.67;;
11398;SDS011;5755;48.116;11.608;2023-01-23T09:59:10;28.33;;;16.80;;
11398;SDS011;5755;48.116;11.608;2023-01-23T10:01:44;26.27;;;16.53;;
11398;SDS011;5755;48.116;11.608;2023-01-23T10:04:10;27.70;;;16.87;;
11398;SDS011;5755;48.116;11.608;2023-01-23T10:06:46;27.07;;;16.27;;
11398;SDS011;5755;48.116;11.608;2023-01-23T10:09:33;30.57;;;17.50;;
11398;SDS011;5755;48.116;11.608;2023-01-23T10:12:24;27.03;;;16.40;;
11398;SDS011;5755;48.116;11.608;2023-01-23T10:15:01;27.73;;;16.70;;
11398;SDS011;5755;48.116;11.608;2023-01-23T10:17:42;23.47;;;15.40;;
11398;SDS011;5755;48.116;11.608;2023-01-23T10:20:25;24.50;;;15.73;;
11398;SDS011;5755;48.116;11.608;2023-01-23T10:23:06;27.33;;;16.90;;
11398;SDS011;5755;48.116;11.608;2023-01-23T10:25:44;27.13;;;16.90;;
11398;SDS011;5755;48.116;11.608;2023-01-23T10:28:16;27.30;;;17.00;;
11398;SDS011;5755;48.116;11.608;2023-01-23T10:30:53;27.53;;;17.00;;
11398;SDS011;5755;48.116;11.608;2023-01-23T10:33:26;28.63;;;17.50;;
11398;SDS011;5755;48.116;11.608;2023-01-23T10:36:01;30.07;;;18.80;;
11398;SDS011;5755;48.116;11.608;2023-01-23T10:38:32;31.50;;;17.77;;
11398;SDS011;5755;48.116;11.608;2023-01-23T10:41:07;29.50;;;17.73;;
11398;SDS011;5755;48.116;11.608;2023-01-23T10:43:39;29.50;;;17.80;;
11398;SDS011;5755;48.116;11.608;2023-01-23T10:46:09;31.40;;;18.43;;
11398;SDS011;5755;48.116;11.608;2023-01-23T10:48:40;29.67;;;18.13;;
11398;SDS011;5755;48.116;11.608;2023-01-23T10:51:27;32.97;;;19.00;;
11398;SDS011;5755;48.116;11.608;2023-01-23T10:54:00;29.93;;;17.13;;
11398;SDS011;5755;48.116;11.608;2023-01-23T10:56:32;31.13;;;18.50;;
11398;SDS011;5755;48.116;11.608;2023-01-23T10:59:00;31.20;;;18.80;;
11398;SDS011;5755;48.116;11.608;2023-01-23T11:01:29;32.50;;;18.70;;
11398;SDS011;5755;48.116;11.608;2023-01-23T11:04:04;30.43;;;18.27;;
11398;SDS011;5755;48.116;11.608;2023-01-23T11:06:35;31.60;;;18.47;;
11398;SDS011;5755;48.116;11.608;2023-01-23T11:09:02;29.37;;;17.73;;
11398;SDS011;5755;48.116;11.608;2023-01-23T11:11:34;31.33;;;18.50;;
11398;SDS011;5755;48.116;11.608;2023-01-23T11:14:05;31.40;;;18.00;;
11398;SDS011;5755;48.116;11.608;2023-01-23T11:16:33;29.80;;;18.43;;
11398;SDS011;5755;48.116;11.608;2023-01-23T11:19:10;38.60;;;19.33;;
11398;SDS011;5755;48.116;11.608;2023-01-23T11:21:49;31.90;;;18.67;;
11398;SDS011;5755;48.116;11.608;2023-01-23T11:24:18;29.47;;;19.10;;
11398;SDS011;5755;48.116;11.608;2023-01-23T11:26:46;30.27;;;17.87;;
11398;SDS011;5755;48.116;11.608;2023-01-23T11:29:23;29.30;;;17.90;;
11398;SDS011;5755;48.116;11.608;2023-01-23T11:31:52;32.03;;;18.37;;
11398;SDS011;5755;48.116;11.608;2023-01-23T11:34:26;29.37;;;17.93;;
11398;SDS011;5755;48.116;11.608;2023-01-23T11:36:59;29.97;;;18.43;;
11398;SDS011;5755;48.116;11.608;2023-01-23T11:39:39;29.37;;;18.00;;
11398;SDS011;5755;48.116;11.608;2023-01-23T11:42:12;29.27;;;17.40;;
11398;SDS011;5755;48.116;11.608;2023-01-23T11:44:40;31.37;;;18.40;;
11398;SDS011;5755;48.116;11.608;2023-01-23T11:47:11;32.10;;;19.33;;
11398;SDS011;5755;48.116;11.608;2023-01-23T11:50:10;31.13;;;18.30;;
11398;SDS011;5755;48.116;11.608;2023-01-23T11:52:48;30.00;;;17.93;;
11398;SDS011;5755;48.116;11.608;2023-01-23T11:58:21;32.30;;;19.03;;
11398;SDS011;5755;48.116;11.608;2023-01-23T12:01:04;28.43;;;17.90;;
11398;SDS011;5755;48.116;11.608;2023-01-23T12:04:00;30.10;;;18.20;;
11398;SDS011;5755;48.116;11.608;2023-01-23T12:06:46;32.50;;;19.17;;
11398;SDS011;5755;48.116;11.608;2023-01-23T12:09:28;32.87;;;19.00;;
11398;SDS011;5755;48.116;11.608;2023-01-23T12:12:07;28.40;;;17.70;;
11398;SDS011;5755;48.116;11.608;2023-01-23T12:14:44;27.33;;;17.03;;
11398;SDS011;5755;48.116;11.608;2023-01-23T12:17:19;29.57;;;17.90;;
11398;SDS011;5755;48.116;11.608;2023-01-23T12:19:57;27.80;;;18.90;;
11398;SDS011;5755;48.116;11.608;2023-01-23T12:22:32;25.70;;;16.83;;
11398;SDS011;5755;48.116;11.608;2023-01-23T12:25:11;26.47;;;16.97;;
11398;SDS011;5755;48.116;11.608;2023-01-23T12:27:47;26.90;;;17.07;;
11398;SDS011;5755;48.116;11.608;2023-01-23T12:30:32;29.00;;;18.13;;
11398;SDS011;5755;48.116;11.608;2023-01-23T12:33:35;28.10;;;17.03;;
11398;SDS011;5755;48.116;11.608;2023-01-23T12:36:15;27.30;;;17.00;;
11398;SDS011;5755;48.116;11.608;2023-01-23T12:38:53;28.07;;;16.73;;
11398;SDS011;5755;48.116;11.608;2023-01-23T12:41:31;27.27;;;16.40;;
11398;SDS011;5755;48.116;11.608;2023-01-23T12:44:04;25.73;;;16.53;;
11398;SDS011;5755;48.116;11.608;2023-01-23T12:46:40;24.97;;;17.17;;
11398;SDS011;5755;48.116;11.608;2023-01-23T12:49:15;25.50;;;16.83;;
11398;SDS011;5755;48.116;11.608;2023-01-23T12:51:49;26.03;;;16.10;;
11398;SDS011;5755;48.116;11.608;2023-01-23T12:54:26;26.57;;;17.57;;
11398;SDS011;5755;48.116;11.608;2023-01-23T12:57:00;26.73;;;16.43;;
11398;SDS011;5755;48.116;11.608;2023-01-23T12:59:33;25.23;;;16.27;;
11398;SDS011;5755;48.116;11.608;2023-01-23T13:02:13;25.10;;;16.47;;
11398;SDS011;5755;48.116;11.608;2023-01-23T13:04:48;26.40;;;16.50;;
11398;SDS011;5755;48.116;11.608;2023-01-23T13:07:32;25.53;;;16.73;;
11398;SDS011;5755;48.116;11.608;2023-01-23T13:10:19;25.07;;;16.53;;
11398;SDS011;5755;48.116;11.608;2023-01-23T13:13:14;26.23;;;16.97;;
11398;SDS011;5755;48.116;11.608;2023-01-23T13:15:42;26.40;;;16.57;;
11398;SDS011;5755;48.116;11.608;2023-01-23T13:18:25;28.27;;;16.43;;
11398;SDS011;5755;48.116;11.608;2023-01-23T13:20:54;26.80;;;16.80;;
11398;SDS011;5755;48.116;11.608;2023-01-23T13:23:49;25.23;;;16.40;;
11398;SDS011;5755;48.116;11.608;2023-01-23T13:26:37;26.43;;;16.73;;
11398;SDS011;5755;48.116;11.608;2023-01-23T13:29:06;27.20;;;17.27;;
11398;SDS011;5755;48.116;11.608;2023-01-23T13:32:19;25.53;;;16.23;;
11398;SDS011;5755;48.116;11.608;2023-01-23T13:34:47;30.13;;;18.20;;
11398;SDS011;5755;48.116;11.608;2023-01-23T13:40:16;27.37;;;16.10;;
11398;SDS011;5755;48.116;11.608;2023-01-23T13:42:46;26.63;;;16.83;;
11398;SDS011;5755;48.116;11.608;2023-01-23T13:45:24;26.33;;;16.57;;
11398;SDS011;5755;48.116;11.608;2023-01-23T13:47:59;26.37;;;16.20;;
11398;SDS011;5755;48.116;11.608;2023-01-23T13:51:01;23.73;;;15.70;;
11398;SDS011;5755;48.116;11.608;2023-01-23T13:53:41;27.10;;;16.00;;
11398;SDS011;5755;48.116;11.608;2023-01-23T13:56:27;23.83;;;15.77;;
11398;SDS011;5755;48.116;11.608;2023-01-23T13:59:10;24.87;;;16.13;;
11398;SDS011;5755;48.116;11.608;2023-01-23T14:01:46;25.07;;;16.37;;
11398;SDS011;5755;48.116;11.608;2023-01-23T14:04:34;25.47;;;15.97;;
11398;SDS011;5755;48.116;11.608;2023-01-23T14:07:25;23.97;;;15.57;;
11398;SDS011;5755;48.116;11.608;2023-01-23T14:10:28;26.30;;;16.10;;
11398;SDS011;5755;48.116;11.608;2023-01-23T14:13:06;25.70;;;16.40;;
11398;SDS011;5755;48.116;11.608;2023-01-23T14:15:35;24.53;;;16.43;;
11398;SDS011;5755;48.116;11.608;2023-01-23T14:18:27;26.40;;;16.70;;
11398;SDS011;5755;48.116;11.608;2023-01-23T14:21:02;23.90;;;16.33;;
11398;SDS011;5755;48.116;11.608;2023-01-23T14:23:33;24.60;;;16.17;;
11398;SDS011;5755;48.116;11.608;2023-01-23T14:26:05;22.97;;;15.30;;
11398;SDS011;5755;48.116;11.608;2023-01-23T14:28:35;24.67;;;16.37;;
11398;SDS011;5755;48.116;11.608;2023-01-23T14:31:03;24.40;;;16.60;;
11398;SDS011;5755;48.116;11.608;2023-01-23T14:33:40;24.43;;;15.50;;
11398;SDS011;5755;48.116;11.608;2023-01-23T14:36:16;24.67;;;15.87;;
11398;SDS011;5755;48.116;11.608;2023-01-23T14:38:44;25.37;;;16.07;;
11398;SDS011;5755;48.116;11.608;2023-01-23T14:41:15;24.80;;;15.97;;
11398;SDS011;5755;48.116;11.608;2023-01-23T14:43:44;24.03;;;15.90;;
11398;SDS011;5755;48.116;11.608;2023-01-23T14:46:13;22.63;;;14.70;;
11398;SDS011;5755;48.116;11.608;2023-01-23T14:48:43;23.97;;;15.50;;
11398;SDS011;5755;48.116;11.608;2023-01-23T14:51:16;24.17;;;14.13;;
11398;SDS011;5755;48.116;11.608;2023-01-23T14:53:49;24.53;;;15.07;;
11398;SDS011;5755;48.116;11.608;2023-01-23T14:56:20;24.90;;;15.20;;